Libra Santa Catarina — A8IY7 — position and weather

sailwx.info

Track history (hours):
 
Tides and Currents Weather Stations Pressure Air Temp Water Temp Dewpoint Dewpoint Depression Visibility Wind Speed Wind Dir Waves Ship Positions

Libra Santa Catarina

Last reported at 2017-Nov-12 03:46 UTC. Time now 2017-Nov-24 07:24 UTC.
Position N 26°21' W 015°43'.
Warning: this ship's position is 12 days out of date.

Length 207.5 m; beam 29.8 m; draft 11.4 m.

Type: Ship. MMSI: 636091056.

Date/timePositionNaut miles runAvg speedWind from/ knotsBaromVisibWave heightAir tempDewpointWater temp
2017-Nov-12 03:46N 26°21' W 015°43'414.1
2017-Nov-12 03:28N 26°24' W 015°40'614.1
2017-Nov-12 03:00N 26°28' W 015°34'714.2
2017-Nov-12 02:30N 26°32' W 015°27'714.3
2017-Nov-12 02:00N 26°36' W 015°20'714.1
2017-Nov-12 01:30N 26°40' W 015°14'713.6
2017-Nov-12 01:00N 26°44' W 015°08'813.6
2017-Nov-12 00:24N 26°49' W 015°01'613.8
2017-Nov-12 00:00N 26°52' W 014°56'713.8
2017-Nov-11 23:29N 26°56' W 014°49'713.8
2017-Nov-11 23:00N 26°60' W 014°43'713.6
2017-Nov-11 22:27N 27°04' W 014°36'713.7
2017-Nov-11 21:59N 27°08' W 014°30'713.9
2017-Nov-11 21:30N 27°12' W 014°24'714.0
2017-Nov-11 21:00N 27°15' W 014°17'713.6
2017-Nov-11 20:30N 27°20' W 014°12'713.6
2017-Nov-11 19:59N 27°26' W 014°07'2414.3
2017-Nov-11 18:18N 27°45' W 013°51'514.4
2017-Nov-11 17:56N 27°49' W 013°47'714.5
2017-Nov-11 17:28N 27°55' W 013°43'714.6
2017-Nov-11 17:00N 28°00' W 013°39'5014.3
2017-Nov-11 13:30N 28°41' W 013°05'2614.6
2017-Nov-11 11:45N 29°02' W 012°48'414.1
2017-Nov-11 11:30N 29°04' W 012°46'713.9
2017-Nov-11 11:01N 29°10' W 012°41'713.7
2017-Nov-11 10:31N 29°16' W 012°36'713.8
2017-Nov-11 10:00N 29°21' W 012°32'713.9
2017-Nov-11 09:30N 29°27' W 012°27'713.8
2017-Nov-11 09:00N 29°33' W 012°23'713.8
2017-Nov-11 08:30N 29°38' W 012°18'713.9
2017-Nov-11 08:00N 29°44' W 012°14'917.0
2017-Nov-11 07:30N 29°51' W 012°09'1019.7
2017-Nov-11 07:00N 29°59' W 012°02'814.7
2017-Nov-11 06:30N 30°05' W 011°57'714.3
2017-Nov-11 06:00N 30°11' W 011°52'714.0
2017-Nov-11 05:30N 30°17' W 011°48'713.7
2017-Nov-11 05:00N 30°23' W 011°43'813.7
2017-Nov-11 04:26N 30°29' W 011°38'613.7
2017-Nov-11 04:00N 30°34' W 011°35'713.9
2017-Nov-11 03:30N 30°40' W 011°31'714.0
2017-Nov-11 02:59N 30°47' W 011°26'1413.9
2017-Nov-11 01:59N 30°58' W 011°17'714.1
2017-Nov-11 01:31N 31°03' W 011°12'713.8
2017-Nov-11 01:00N 31°09' W 011°07'713.9
2017-Nov-11 00:30N 31°14' W 011°03'714.0
2017-Nov-11 00:00N 31°20' W 010°58'714.2
2017-Nov-10 23:30N 31°26' W 010°53'4213.9
2017-Nov-10 20:29N 31°60' W 010°24'714.1
2017-Nov-10 19:59N 32°05' W 010°19'3014.3
2017-Nov-10 17:54N 32°28' W 009°56'30114.2
2017-Nov-09 20:39N 35°58' W 005°35'313.9
2017-Nov-09 20:27N 35°58' W 005°32'613.1
2017-Nov-09 20:01N 36°00' W 005°25'6 0.1
2017-Nov-07 17:45N 35°56' W 005°29'2 8.0
2017-Nov-07 17:30N 35°54' W 005°30'1 1.0
2017-Nov-07 17:00N 35°53' W 005°30'0 0.2
2017-Nov-07 16:30N 35°53' W 005°30'0 0.0
2017-Nov-07 16:00N 35°53' W 005°30'0 0.0
2017-Nov-07 15:24N 35°53' W 005°30'0 0.0
2017-Nov-07 14:48N 35°53' W 005°30'0 0.0
2017-Nov-07 14:30N 35°53' W 005°30'0 0.2
2017-Nov-07 14:00N 35°53' W 005°30'0 0.0
2017-Nov-07 13:30N 35°53' W 005°30'0 0.0
2017-Nov-07 13:00N 35°53' W 005°30'0 0.0
2017-Nov-07 12:24N 35°53' W 005°30'  
2017-Nov-04 13:58N 28°50' W 012°59'511.1
2017-Nov-04 13:29N 28°45' W 013°02'1711.0
2017-Nov-04 11:55N 28°31' W 013°13'2711.3
2017-Nov-04 09:31N 28°09' W 013°31'011.3
2017-Nov-04 09:30N 28°09' W 013°31'  
Track history (hours):
 
Tides and Currents Weather Stations Pressure Air Temp Water Temp Dewpoint Dewpoint Depression Visibility Wind Speed Wind Dir Waves Ship Positions

Libra Santa Catarina

Last reported at 2017-Nov-12 03:46 UTC. Time now 2017-Nov-24 07:24 UTC.
Position N 26°21' W 015°43'.
Warning: this ship's position is 12 days out of date.

Length 207.5 m; beam 29.8 m; draft 11.4 m.

Type: Ship. MMSI: 636091056.

Date/timePositionNaut miles runAvg speedWind from/ knotsBaromVisibWave heightAir tempDewpointWater temp
2017-Nov-12 03:46N 26°21' W 015°43'414.1
2017-Nov-12 03:28N 26°24' W 015°40'614.1
2017-Nov-12 03:00N 26°28' W 015°34'714.2
2017-Nov-12 02:30N 26°32' W 015°27'714.3
2017-Nov-12 02:00N 26°36' W 015°20'714.1
2017-Nov-12 01:30N 26°40' W 015°14'713.6
2017-Nov-12 01:00N 26°44' W 015°08'813.6
2017-Nov-12 00:24N 26°49' W 015°01'613.8
2017-Nov-12 00:00N 26°52' W 014°56'713.8
2017-Nov-11 23:29N 26°56' W 014°49'713.8
2017-Nov-11 23:00N 26°60' W 014°43'713.6
2017-Nov-11 22:27N 27°04' W 014°36'713.7
2017-Nov-11 21:59N 27°08' W 014°30'713.9
2017-Nov-11 21:30N 27°12' W 014°24'714.0
2017-Nov-11 21:00N 27°15' W 014°17'713.6
2017-Nov-11 20:30N 27°20' W 014°12'713.6
2017-Nov-11 19:59N 27°26' W 014°07'2414.3
2017-Nov-11 18:18N 27°45' W 013°51'514.4
2017-Nov-11 17:56N 27°49' W 013°47'714.5
2017-Nov-11 17:28N 27°55' W 013°43'714.6
2017-Nov-11 17:00N 28°00' W 013°39'5014.3
2017-Nov-11 13:30N 28°41' W 013°05'2614.6
2017-Nov-11 11:45N 29°02' W 012°48'414.1
2017-Nov-11 11:30N 29°04' W 012°46'713.9
2017-Nov-11 11:01N 29°10' W 012°41'713.7
2017-Nov-11 10:31N 29°16' W 012°36'713.8
2017-Nov-11 10:00N 29°21' W 012°32'713.9
2017-Nov-11 09:30N 29°27' W 012°27'713.8
2017-Nov-11 09:00N 29°33' W 012°23'713.8
2017-Nov-11 08:30N 29°38' W 012°18'713.9
2017-Nov-11 08:00N 29°44' W 012°14'917.0
2017-Nov-11 07:30N 29°51' W 012°09'1019.7
2017-Nov-11 07:00N 29°59' W 012°02'814.7
2017-Nov-11 06:30N 30°05' W 011°57'714.3
2017-Nov-11 06:00N 30°11' W 011°52'714.0
2017-Nov-11 05:30N 30°17' W 011°48'713.7
2017-Nov-11 05:00N 30°23' W 011°43'813.7
2017-Nov-11 04:26N 30°29' W 011°38'613.7
2017-Nov-11 04:00N 30°34' W 011°35'713.9
2017-Nov-11 03:30N 30°40' W 011°31'714.0
2017-Nov-11 02:59N 30°47' W 011°26'1413.9
2017-Nov-11 01:59N 30°58' W 011°17'714.1
2017-Nov-11 01:31N 31°03' W 011°12'713.8
2017-Nov-11 01:00N 31°09' W 011°07'713.9
2017-Nov-11 00:30N 31°14' W 011°03'714.0
2017-Nov-11 00:00N 31°20' W 010°58'714.2
2017-Nov-10 23:30N 31°26' W 010°53'4213.9
2017-Nov-10 20:29N 31°60' W 010°24'714.1
2017-Nov-10 19:59N 32°05' W 010°19'3014.3
2017-Nov-10 17:54N 32°28' W 009°56'30114.2
2017-Nov-09 20:39N 35°58' W 005°35'313.9
2017-Nov-09 20:27N 35°58' W 005°32'613.1
2017-Nov-09 20:01N 36°00' W 005°25'6 0.1
2017-Nov-07 17:45N 35°56' W 005°29'2 8.0
2017-Nov-07 17:30N 35°54' W 005°30'1 1.0
2017-Nov-07 17:00N 35°53' W 005°30'0 0.2
2017-Nov-07 16:30N 35°53' W 005°30'0 0.0
2017-Nov-07 16:00N 35°53' W 005°30'0 0.0
2017-Nov-07 15:24N 35°53' W 005°30'0 0.0
2017-Nov-07 14:48N 35°53' W 005°30'0 0.0
2017-Nov-07 14:30N 35°53' W 005°30'0 0.2
2017-Nov-07 14:00N 35°53' W 005°30'0 0.0
2017-Nov-07 13:30N 35°53' W 005°30'0 0.0
2017-Nov-07 13:00N 35°53' W 005°30'0 0.0
2017-Nov-07 12:24N 35°53' W 005°30'  
2017-Nov-04 13:58N 28°50' W 012°59'511.1
2017-Nov-04 13:29N 28°45' W 013°02'1711.0
2017-Nov-04 11:55N 28°31' W 013°13'2711.3
2017-Nov-04 09:31N 28°09' W 013°31'011.3
2017-Nov-04 09:30N 28°09' W 013°31'  

Dump ship's entire track history